sensor_id;sensor_type;location;lat;lon;timestamp;P1;durP1;ratioP1;P2;durP2;ratioP2
9942;SDS011;5010;45.080;7.634;2024-01-27T00:01:31;20.20;;;12.48;;
9942;SDS011;5010;45.080;7.634;2024-01-27T00:04:00;5.90;;;3.75;;
9942;SDS011;5010;45.080;7.634;2024-01-27T00:06:28;6.47;;;3.05;;
9942;SDS011;5010;45.080;7.634;2024-01-27T00:08:55;7.65;;;4.40;;
9942;SDS011;5010;45.080;7.634;2024-01-27T00:11:23;5.18;;;3.10;;
9942;SDS011;5010;45.080;7.634;2024-01-27T00:13:50;4.15;;;2.40;;
9942;SDS011;5010;45.080;7.634;2024-01-27T00:16:18;7.43;;;4.85;;
9942;SDS011;5010;45.080;7.634;2024-01-27T00:18:46;3.60;;;2.00;;
9942;SDS011;5010;45.080;7.634;2024-01-27T00:21:15;3.83;;;2.08;;
9942;SDS011;5010;45.080;7.634;2024-01-27T00:23:42;5.47;;;2.35;;
9942;SDS011;5010;45.080;7.634;2024-01-27T00:26:10;4.95;;;2.13;;
9942;SDS011;5010;45.080;7.634;2024-01-27T00:28:37;6.05;;;3.10;;
9942;SDS011;5010;45.080;7.634;2024-01-27T00:31:05;6.18;;;2.83;;
9942;SDS011;5010;45.080;7.634;2024-01-27T00:33:32;8.48;;;5.30;;
9942;SDS011;5010;45.080;7.634;2024-01-27T00:36:01;6.35;;;2.50;;
9942;SDS011;5010;45.080;7.634;2024-01-27T00:38:30;5.03;;;2.03;;
9942;SDS011;5010;45.080;7.634;2024-01-27T00:40:57;3.92;;;1.90;;
9942;SDS011;5010;45.080;7.634;2024-01-27T00:43:25;5.05;;;3.03;;
9942;SDS011;5010;45.080;7.634;2024-01-27T00:45:52;4.13;;;2.00;;
9942;SDS011;5010;45.080;7.634;2024-01-27T00:48:20;3.78;;;1.70;;
9942;SDS011;5010;45.080;7.634;2024-01-27T00:50:48;3.00;;;1.27;;
9942;SDS011;5010;45.080;7.634;2024-01-27T00:53:15;3.97;;;1.60;;
9942;SDS011;5010;45.080;7.634;2024-01-27T00:55:44;3.88;;;1.80;;
9942;SDS011;5010;45.080;7.634;2024-01-27T00:58:12;6.70;;;2.63;;
9942;SDS011;5010;45.080;7.634;2024-01-27T01:00:39;4.10;;;1.85;;
9942;SDS011;5010;45.080;7.634;2024-01-27T01:03:07;7.05;;;4.30;;
9942;SDS011;5010;45.080;7.634;2024-01-27T01:05:34;20.45;;;15.48;;
9942;SDS011;5010;45.080;7.634;2024-01-27T01:08:02;6.43;;;3.50;;
9942;SDS011;5010;45.080;7.634;2024-01-27T01:10:31;7.05;;;3.55;;
9942;SDS011;5010;45.080;7.634;2024-01-27T01:13:00;6.90;;;4.47;;
9942;SDS011;5010;45.080;7.634;2024-01-27T01:15:28;8.15;;;5.60;;
9942;SDS011;5010;45.080;7.634;2024-01-27T01:17:56;7.55;;;3.30;;
9942;SDS011;5010;45.080;7.634;2024-01-27T01:20:23;6.00;;;2.83;;
9942;SDS011;5010;45.080;7.634;2024-01-27T01:22:52;12.10;;;6.05;;
9942;SDS011;5010;45.080;7.634;2024-01-27T01:25:19;10.23;;;4.75;;
9942;SDS011;5010;45.080;7.634;2024-01-27T01:27:47;21.98;;;12.13;;
9942;SDS011;5010;45.080;7.634;2024-01-27T01:30:17;20.23;;;9.65;;
9942;SDS011;5010;45.080;7.634;2024-01-27T01:32:44;14.77;;;7.07;;
9942;SDS011;5010;45.080;7.634;2024-01-27T01:35:12;8.88;;;5.30;;
9942;SDS011;5010;45.080;7.634;2024-01-27T01:37:40;9.73;;;4.68;;
9942;SDS011;5010;45.080;7.634;2024-01-27T01:40:08;10.10;;;7.75;;
9942;SDS011;5010;45.080;7.634;2024-01-27T01:42:36;16.38;;;10.02;;
9942;SDS011;5010;45.080;7.634;2024-01-27T01:45:03;6.88;;;2.78;;
9942;SDS011;5010;45.080;7.634;2024-01-27T01:47:33;4.18;;;2.45;;
9942;SDS011;5010;45.080;7.634;2024-01-27T01:50:01;4.68;;;3.30;;
9942;SDS011;5010;45.080;7.634;2024-01-27T01:52:29;5.50;;;2.83;;
9942;SDS011;5010;45.080;7.634;2024-01-27T01:54:57;3.53;;;1.88;;
9942;SDS011;5010;45.080;7.634;2024-01-27T01:57:25;4.15;;;2.50;;
9942;SDS011;5010;45.080;7.634;2024-01-27T01:59:52;5.07;;;3.50;;
9942;SDS011;5010;45.080;7.634;2024-01-27T02:02:20;6.18;;;4.60;;
9942;SDS011;5010;45.080;7.634;2024-01-27T02:04:49;4.70;;;3.42;;
9942;SDS011;5010;45.080;7.634;2024-01-27T02:07:17;3.40;;;1.50;;
9942;SDS011;5010;45.080;7.634;2024-01-27T02:09:44;4.20;;;1.70;;
9942;SDS011;5010;45.080;7.634;2024-01-27T02:12:12;3.00;;;1.40;;
9942;SDS011;5010;45.080;7.634;2024-01-27T02:14:39;3.15;;;1.40;;
9942;SDS011;5010;45.080;7.634;2024-01-27T02:17:07;5.15;;;1.52;;
9942;SDS011;5010;45.080;7.634;2024-01-27T02:19:34;5.25;;;1.73;;
9942;SDS011;5010;45.080;7.634;2024-01-27T02:22:03;4.97;;;1.80;;
9942;SDS011;5010;45.080;7.634;2024-01-27T02:24:33;4.75;;;1.58;;
9942;SDS011;5010;45.080;7.634;2024-01-27T02:27:00;4.60;;;1.83;;
9942;SDS011;5010;45.080;7.634;2024-01-27T02:29:28;3.10;;;1.30;;
9942;SDS011;5010;45.080;7.634;2024-01-27T02:31:55;4.22;;;1.73;;
9942;SDS011;5010;45.080;7.634;2024-01-27T02:34:23;3.47;;;1.60;;
9942;SDS011;5010;45.080;7.634;2024-01-27T02:36:51;4.20;;;2.60;;
9942;SDS011;5010;45.080;7.634;2024-01-27T02:39:18;4.25;;;1.70;;
9942;SDS011;5010;45.080;7.634;2024-01-27T02:41:48;3.92;;;1.70;;
9942;SDS011;5010;45.080;7.634;2024-01-27T02:44:15;3.10;;;1.38;;
9942;SDS011;5010;45.080;7.634;2024-01-27T02:46:43;3.50;;;1.48;;
9942;SDS011;5010;45.080;7.634;2024-01-27T02:49:11;3.35;;;1.52;;
9942;SDS011;5010;45.080;7.634;2024-01-27T02:51:38;4.75;;;1.48;;
9942;SDS011;5010;45.080;7.634;2024-01-27T02:54:06;3.67;;;1.50;;
9942;SDS011;5010;45.080;7.634;2024-01-27T02:56:33;3.17;;;1.38;;
9942;SDS011;5010;45.080;7.634;2024-01-27T02:59:03;7.82;;;1.70;;
9942;SDS011;5010;45.080;7.634;2024-01-27T03:01:30;3.10;;;1.27;;
9942;SDS011;5010;45.080;7.634;2024-01-27T03:03:58;3.40;;;1.50;;
9942;SDS011;5010;45.080;7.634;2024-01-27T03:06:25;3.20;;;1.40;;
9942;SDS011;5010;45.080;7.634;2024-01-27T03:08:53;3.67;;;1.20;;
9942;SDS011;5010;45.080;7.634;2024-01-27T03:11:21;3.55;;;1.40;;
9942;SDS011;5010;45.080;7.634;2024-01-27T03:13:48;3.28;;;1.70;;
9942;SDS011;5010;45.080;7.634;2024-01-27T03:16:18;3.10;;;1.35;;
9942;SDS011;5010;45.080;7.634;2024-01-27T03:18:46;3.03;;;1.40;;
9942;SDS011;5010;45.080;7.634;2024-01-27T03:21:13;3.13;;;1.23;;
9942;SDS011;5010;45.080;7.634;2024-01-27T03:23:41;2.90;;;1.15;;
9942;SDS011;5010;45.080;7.634;2024-01-27T03:26:09;3.20;;;1.30;;
9942;SDS011;5010;45.080;7.634;2024-01-27T03:28:36;3.75;;;1.35;;
9942;SDS011;5010;45.080;7.634;2024-01-27T03:31:04;3.00;;;1.30;;
9942;SDS011;5010;45.080;7.634;2024-01-27T03:33:33;3.10;;;1.30;;
9942;SDS011;5010;45.080;7.634;2024-01-27T03:36:00;3.33;;;1.30;;
9942;SDS011;5010;45.080;7.634;2024-01-27T03:38:28;3.00;;;1.17;;
9942;SDS011;5010;45.080;7.634;2024-01-27T03:40:55;3.08;;;1.17;;
9942;SDS011;5010;45.080;7.634;2024-01-27T03:43:24;3.20;;;1.50;;
9942;SDS011;5010;45.080;7.634;2024-01-27T03:45:51;4.55;;;1.40;;
9942;SDS011;5010;45.080;7.634;2024-01-27T03:48:19;3.33;;;1.30;;
9942;SDS011;5010;45.080;7.634;2024-01-27T03:50:48;3.25;;;1.38;;
9942;SDS011;5010;45.080;7.634;2024-01-27T03:53:15;3.30;;;1.50;;
9942;SDS011;5010;45.080;7.634;2024-01-27T03:55:43;3.20;;;1.33;;
9942;SDS011;5010;45.080;7.634;2024-01-27T03:58:10;3.60;;;1.60;;
9942;SDS011;5010;45.080;7.634;2024-01-27T04:00:38;3.38;;;1.50;;
9942;SDS011;5010;45.080;7.634;2024-01-27T04:03:05;3.17;;;1.80;;
9942;SDS011;5010;45.080;7.634;2024-01-27T04:05:35;3.00;;;1.30;;
9942;SDS011;5010;45.080;7.634;2024-01-27T04:08:04;3.30;;;1.60;;
9942;SDS011;5010;45.080;7.634;2024-01-27T04:10:32;3.47;;;1.42;;
9942;SDS011;5010;45.080;7.634;2024-01-27T04:13:00;4.47;;;1.40;;
9942;SDS011;5010;45.080;7.634;2024-01-27T04:15:28;2.90;;;1.30;;
9942;SDS011;5010;45.080;7.634;2024-01-27T04:17:56;3.42;;;1.50;;
9942;SDS011;5010;45.080;7.634;2024-01-27T04:20:23;3.47;;;1.45;;
9942;SDS011;5010;45.080;7.634;2024-01-27T04:22:51;3.72;;;1.60;;
9942;SDS011;5010;45.080;7.634;2024-01-27T04:25:20;4.28;;;1.40;;
9942;SDS011;5010;45.080;7.634;2024-01-27T04:27:47;3.05;;;1.35;;
9942;SDS011;5010;45.080;7.634;2024-01-27T04:30:15;2.95;;;1.25;;
9942;SDS011;5010;45.080;7.634;2024-01-27T04:32:42;3.20;;;1.50;;
9942;SDS011;5010;45.080;7.634;2024-01-27T04:35:10;3.22;;;1.45;;
9942;SDS011;5010;45.080;7.634;2024-01-27T04:37:38;3.63;;;1.30;;
9942;SDS011;5010;45.080;7.634;2024-01-27T04:40:06;3.50;;;1.67;;
9942;SDS011;5010;45.080;7.634;2024-01-27T04:42:37;3.10;;;1.50;;
9942;SDS011;5010;45.080;7.634;2024-01-27T04:45:05;4.72;;;1.70;;
9942;SDS011;5010;45.080;7.634;2024-01-27T04:47:33;3.85;;;1.85;;
9942;SDS011;5010;45.080;7.634;2024-01-27T04:50:00;3.42;;;1.40;;
9942;SDS011;5010;45.080;7.634;2024-01-27T04:52:28;2.90;;;1.20;;
9942;SDS011;5010;45.080;7.634;2024-01-27T04:54:56;3.33;;;1.30;;
9942;SDS011;5010;45.080;7.634;2024-01-27T04:57:23;3.40;;;1.60;;
9942;SDS011;5010;45.080;7.634;2024-01-27T04:59:52;3.00;;;1.20;;
9942;SDS011;5010;45.080;7.634;2024-01-27T05:02:20;3.35;;;1.77;;
9942;SDS011;5010;45.080;7.634;2024-01-27T05:04:48;3.58;;;1.40;;
9942;SDS011;5010;45.080;7.634;2024-01-27T05:07:16;3.20;;;1.48;;
9942;SDS011;5010;45.080;7.634;2024-01-27T05:09:44;2.92;;;1.33;;
9942;SDS011;5010;45.080;7.634;2024-01-27T05:12:11;3.08;;;1.30;;
9942;SDS011;5010;45.080;7.634;2024-01-27T05:14:42;3.03;;;1.40;;
9942;SDS011;5010;45.080;7.634;2024-01-27T05:17:12;3.10;;;1.40;;
9942;SDS011;5010;45.080;7.634;2024-01-27T05:19:40;2.90;;;1.20;;
9942;SDS011;5010;45.080;7.634;2024-01-27T05:22:07;3.10;;;1.42;;
9942;SDS011;5010;45.080;7.634;2024-01-27T05:24:35;3.10;;;1.40;;
9942;SDS011;5010;45.080;7.634;2024-01-27T05:27:03;3.05;;;1.42;;
9942;SDS011;5010;45.080;7.634;2024-01-27T05:29:30;3.20;;;1.20;;
9942;SDS011;5010;45.080;7.634;2024-01-27T05:31:58;3.53;;;1.40;;
9942;SDS011;5010;45.080;7.634;2024-01-27T05:34:27;3.15;;;1.23;;
9942;SDS011;5010;45.080;7.634;2024-01-27T05:36:55;3.45;;;1.75;;
9942;SDS011;5010;45.080;7.634;2024-01-27T05:39:23;3.67;;;1.40;;
9942;SDS011;5010;45.080;7.634;2024-01-27T05:41:50;3.35;;;1.50;;
9942;SDS011;5010;45.080;7.634;2024-01-27T05:44:18;3.65;;;1.70;;
9942;SDS011;5010;45.080;7.634;2024-01-27T05:46:46;4.03;;;2.08;;
9942;SDS011;5010;45.080;7.634;2024-01-27T05:49:13;3.30;;;1.50;;
9942;SDS011;5010;45.080;7.634;2024-01-27T05:51:43;3.25;;;1.40;;
9942;SDS011;5010;45.080;7.634;2024-01-27T05:54:10;3.78;;;1.52;;
9942;SDS011;5010;45.080;7.634;2024-01-27T05:56:42;3.00;;;1.30;;
9942;SDS011;5010;45.080;7.634;2024-01-27T05:59:09;3.58;;;1.45;;
9942;SDS011;5010;45.080;7.634;2024-01-27T06:01:37;3.25;;;1.30;;
9942;SDS011;5010;45.080;7.634;2024-01-27T06:04:06;3.30;;;1.50;;
9942;SDS011;5010;45.080;7.634;2024-01-27T06:06:33;3.63;;;1.40;;
9942;SDS011;5010;45.080;7.634;2024-01-27T06:09:05;4.13;;;1.48;;
9942;SDS011;5010;45.080;7.634;2024-01-27T06:11:36;3.40;;;1.50;;
9942;SDS011;5010;45.080;7.634;2024-01-27T06:14:04;3.35;;;1.40;;
9942;SDS011;5010;45.080;7.634;2024-01-27T06:16:32;4.00;;;1.63;;
9942;SDS011;5010;45.080;7.634;2024-01-27T06:19:00;4.53;;;1.50;;
9942;SDS011;5010;45.080;7.634;2024-01-27T06:21:28;3.30;;;1.65;;
9942;SDS011;5010;45.080;7.634;2024-01-27T06:23:56;3.58;;;1.70;;
9942;SDS011;5010;45.080;7.634;2024-01-27T06:26:25;3.00;;;1.30;;
9942;SDS011;5010;45.080;7.634;2024-01-27T06:28:53;3.80;;;1.58;;
9942;SDS011;5010;45.080;7.634;2024-01-27T06:31:20;2.90;;;1.20;;
9942;SDS011;5010;45.080;7.634;2024-01-27T06:33:48;3.20;;;1.20;;
9942;SDS011;5010;45.080;7.634;2024-01-27T06:36:16;3.05;;;1.30;;
9942;SDS011;5010;45.080;7.634;2024-01-27T06:38:43;2.90;;;1.20;;
9942;SDS011;5010;45.080;7.634;2024-01-27T06:41:11;3.17;;;1.70;;
9942;SDS011;5010;45.080;7.634;2024-01-27T06:43:40;4.00;;;1.30;;
9942;SDS011;5010;45.080;7.634;2024-01-27T06:46:08;3.58;;;1.45;;
9942;SDS011;5010;45.080;7.634;2024-01-27T06:48:36;3.85;;;1.40;;
9942;SDS011;5010;45.080;7.634;2024-01-27T06:51:04;3.00;;;1.40;;
9942;SDS011;5010;45.080;7.634;2024-01-27T06:53:31;3.20;;;1.50;;
9942;SDS011;5010;45.080;7.634;2024-01-27T06:55:59;5.70;;;1.40;;
9942;SDS011;5010;45.080;7.634;2024-01-27T06:58:27;2.85;;;1.10;;
9942;SDS011;5010;45.080;7.634;2024-01-27T07:00:56;7.30;;;2.95;;
9942;SDS011;5010;45.080;7.634;2024-01-27T07:03:23;9.27;;;2.30;;
9942;SDS011;5010;45.080;7.634;2024-01-27T07:05:51;4.20;;;1.70;;
9942;SDS011;5010;45.080;7.634;2024-01-27T07:08:19;3.00;;;1.30;;
9942;SDS011;5010;45.080;7.634;2024-01-27T07:10:47;3.20;;;1.50;;
9942;SDS011;5010;45.080;7.634;2024-01-27T07:13:14;3.35;;;1.52;;
9942;SDS011;5010;45.080;7.634;2024-01-27T07:15:42;3.10;;;1.20;;
9942;SDS011;5010;45.080;7.634;2024-01-27T07:18:11;4.28;;;1.65;;
9942;SDS011;5010;45.080;7.634;2024-01-27T07:20:40;3.00;;;1.20;;
9942;SDS011;5010;45.080;7.634;2024-01-27T07:23:08;4.95;;;1.42;;
9942;SDS011;5010;45.080;7.634;2024-01-27T07:25:35;3.42;;;1.38;;
9942;SDS011;5010;45.080;7.634;2024-01-27T07:28:03;3.25;;;1.40;;
9942;SDS011;5010;45.080;7.634;2024-01-27T07:30:31;3.85;;;1.75;;
9942;SDS011;5010;45.080;7.634;2024-01-27T07:32:58;3.60;;;1.60;;
9942;SDS011;5010;45.080;7.634;2024-01-27T07:35:27;3.15;;;1.40;;
9942;SDS011;5010;45.080;7.634;2024-01-27T07:37:57;3.50;;;1.60;;
9942;SDS011;5010;45.080;7.634;2024-01-27T07:40:24;3.30;;;1.40;;
9942;SDS011;5010;45.080;7.634;2024-01-27T07:42:52;3.20;;;1.52;;
9942;SDS011;5010;45.080;7.634;2024-01-27T07:45:20;3.97;;;1.90;;
9942;SDS011;5010;45.080;7.634;2024-01-27T07:47:47;4.00;;;1.73;;
9942;SDS011;5010;45.080;7.634;2024-01-27T07:50:15;4.15;;;1.80;;
9942;SDS011;5010;45.080;7.634;2024-01-27T07:52:44;4.53;;;1.90;;
9942;SDS011;5010;45.080;7.634;2024-01-27T07:55:12;4.15;;;1.80;;
9942;SDS011;5010;45.080;7.634;2024-01-27T07:57:39;3.95;;;1.98;;
9942;SDS011;5010;45.080;7.634;2024-01-27T08:00:07;3.03;;;1.42;;
9942;SDS011;5010;45.080;7.634;2024-01-27T08:02:35;5.75;;;1.85;;
9942;SDS011;5010;45.080;7.634;2024-01-27T08:05:03;4.55;;;2.30;;
9942;SDS011;5010;45.080;7.634;2024-01-27T08:07:32;5.38;;;1.80;;
9942;SDS011;5010;45.080;7.634;2024-01-27T08:10:02;3.60;;;1.55;;
9942;SDS011;5010;45.080;7.634;2024-01-27T08:12:30;3.20;;;1.50;;
9942;SDS011;5010;45.080;7.634;2024-01-27T08:14:58;3.30;;;1.50;;
9942;SDS011;5010;45.080;7.634;2024-01-27T08:17:26;4.70;;;1.60;;
9942;SDS011;5010;45.080;7.634;2024-01-27T08:19:54;3.78;;;1.90;;
9942;SDS011;5010;45.080;7.634;2024-01-27T08:22:21;4.05;;;2.55;;
9942;SDS011;5010;45.080;7.634;2024-01-27T08:24:49;4.50;;;1.75;;
9942;SDS011;5010;45.080;7.634;2024-01-27T08:27:18;3.45;;;1.90;;
9942;SDS011;5010;45.080;7.634;2024-01-27T08:29:45;4.30;;;2.10;;
9942;SDS011;5010;45.080;7.634;2024-01-27T08:32:13;3.30;;;1.50;;
9942;SDS011;5010;45.080;7.634;2024-01-27T08:34:40;8.02;;;3.60;;
9942;SDS011;5010;45.080;7.634;2024-01-27T08:37:14;5.60;;;3.30;;
9942;SDS011;5010;45.080;7.634;2024-01-27T08:39:42;3.50;;;1.92;;
9942;SDS011;5010;45.080;7.634;2024-01-27T08:42:10;4.60;;;2.08;;
9942;SDS011;5010;45.080;7.634;2024-01-27T08:44:39;3.10;;;1.45;;
9942;SDS011;5010;45.080;7.634;2024-01-27T08:47:07;6.38;;;2.97;;
9942;SDS011;5010;45.080;7.634;2024-01-27T08:49:34;14.15;;;7.70;;
9942;SDS011;5010;45.080;7.634;2024-01-27T08:52:02;14.65;;;8.10;;
9942;SDS011;5010;45.080;7.634;2024-01-27T08:54:30;5.20;;;3.03;;
9942;SDS011;5010;45.080;7.634;2024-01-27T08:56:58;3.80;;;2.40;;
9942;SDS011;5010;45.080;7.634;2024-01-27T08:59:26;5.18;;;2.50;;
9942;SDS011;5010;45.080;7.634;2024-01-27T09:01:58;4.95;;;2.10;;
9942;SDS011;5010;45.080;7.634;2024-01-27T09:04:28;3.28;;;1.83;;
9942;SDS011;5010;45.080;7.634;2024-01-27T09:06:58;3.50;;;2.20;;
9942;SDS011;5010;45.080;7.634;2024-01-27T09:09:28;4.30;;;2.60;;
9942;SDS011;5010;45.080;7.634;2024-01-27T09:11:59;5.28;;;2.90;;
9942;SDS011;5010;45.080;7.634;2024-01-27T09:14:29;6.68;;;3.40;;
9942;SDS011;5010;45.080;7.634;2024-01-27T09:17:00;6.15;;;2.90;;
9942;SDS011;5010;45.080;7.634;2024-01-27T09:19:28;5.45;;;3.20;;
9942;SDS011;5010;45.080;7.634;2024-01-27T09:21:56;4.68;;;2.50;;
9942;SDS011;5010;45.080;7.634;2024-01-27T09:24:25;7.55;;;3.75;;
9942;SDS011;5010;45.080;7.634;2024-01-27T09:26:52;5.50;;;3.72;;
9942;SDS011;5010;45.080;7.634;2024-01-27T09:29:20;3.60;;;1.80;;
9942;SDS011;5010;45.080;7.634;2024-01-27T09:31:50;3.65;;;2.05;;
9942;SDS011;5010;45.080;7.634;2024-01-27T09:34:23;5.85;;;2.30;;
9942;SDS011;5010;45.080;7.634;2024-01-27T09:36:53;4.00;;;2.10;;
9942;SDS011;5010;45.080;7.634;2024-01-27T09:39:23;3.75;;;2.47;;
9942;SDS011;5010;45.080;7.634;2024-01-27T09:41:53;3.40;;;1.70;;
9942;SDS011;5010;45.080;7.634;2024-01-27T09:44:24;4.40;;;2.45;;
9942;SDS011;5010;45.080;7.634;2024-01-27T09:46:52;3.20;;;1.65;;
9942;SDS011;5010;45.080;7.634;2024-01-27T09:49:22;3.70;;;2.20;;
9942;SDS011;5010;45.080;7.634;2024-01-27T09:51:51;3.42;;;1.90;;
9942;SDS011;5010;45.080;7.634;2024-01-27T09:54:21;3.50;;;2.10;;
9942;SDS011;5010;45.080;7.634;2024-01-27T09:56:48;3.50;;;2.00;;
9942;SDS011;5010;45.080;7.634;2024-01-27T09:59:18;3.83;;;2.20;;
9942;SDS011;5010;45.080;7.634;2024-01-27T10:01:47;3.80;;;2.60;;
9942;SDS011;5010;45.080;7.634;2024-01-27T10:04:16;4.03;;;3.20;;
9942;SDS011;5010;45.080;7.634;2024-01-27T10:06:47;4.13;;;2.90;;
9942;SDS011;5010;45.080;7.634;2024-01-27T10:09:16;5.25;;;3.10;;
9942;SDS011;5010;45.080;7.634;2024-01-27T10:11:45;3.75;;;2.50;;
9942;SDS011;5010;45.080;7.634;2024-01-27T10:14:13;3.70;;;2.40;;
9942;SDS011;5010;45.080;7.634;2024-01-27T10:16:41;3.90;;;2.50;;
9942;SDS011;5010;45.080;7.634;2024-01-27T10:19:12;3.83;;;2.53;;
9942;SDS011;5010;45.080;7.634;2024-01-27T10:21:43;4.18;;;3.13;;
9942;SDS011;5010;45.080;7.634;2024-01-27T10:24:12;5.03;;;2.55;;
9942;SDS011;5010;45.080;7.634;2024-01-27T10:26:40;4.15;;;2.70;;
9942;SDS011;5010;45.080;7.634;2024-01-27T10:29:08;4.40;;;2.50;;
9942;SDS011;5010;45.080;7.634;2024-01-27T10:31:35;4.18;;;2.50;;
9942;SDS011;5010;45.080;7.634;2024-01-27T10:34:04;3.60;;;2.30;;
9942;SDS011;5010;45.080;7.634;2024-01-27T10:36:40;4.05;;;2.25;;
9942;SDS011;5010;45.080;7.634;2024-01-27T10:39:18;3.90;;;2.05;;
9942;SDS011;5010;45.080;7.634;2024-01-27T10:41:48;3.80;;;2.10;;
9942;SDS011;5010;45.080;7.634;2024-01-27T10:44:16;3.47;;;2.10;;
9942;SDS011;5010;45.080;7.634;2024-01-27T10:46:44;4.50;;;3.40;;
9942;SDS011;5010;45.080;7.634;2024-01-27T10:49:13;4.13;;;2.67;;
9942;SDS011;5010;45.080;7.634;2024-01-27T10:51:43;6.03;;;3.50;;
9942;SDS011;5010;45.080;7.634;2024-01-27T10:54:14;4.10;;;3.20;;
9942;SDS011;5010;45.080;7.634;2024-01-27T10:56:51;4.35;;;3.30;;
9942;SDS011;5010;45.080;7.634;2024-01-27T10:59:21;5.75;;;2.67;;
9942;SDS011;5010;45.080;7.634;2024-01-27T11:01:49;4.10;;;2.90;;
9942;SDS011;5010;45.080;7.634;2024-01-27T11:04:19;4.30;;;3.60;;
9942;SDS011;5010;45.080;7.634;2024-01-27T11:06:48;6.13;;;4.32;;
9942;SDS011;5010;45.080;7.634;2024-01-27T11:09:16;6.10;;;5.00;;
9942;SDS011;5010;45.080;7.634;2024-01-27T11:11:45;4.80;;;3.83;;
9942;SDS011;5010;45.080;7.634;2024-01-27T11:14:15;5.15;;;4.60;;
9942;SDS011;5010;45.080;7.634;2024-01-27T11:16:43;5.40;;;3.88;;
9942;SDS011;5010;45.080;7.634;2024-01-27T11:19:12;4.93;;;4.68;;
9942;SDS011;5010;45.080;7.634;2024-01-27T11:21:40;4.88;;;3.90;;
9942;SDS011;5010;45.080;7.634;2024-01-27T11:24:14;5.43;;;4.45;;
9942;SDS011;5010;45.080;7.634;2024-01-27T11:26:43;6.35;;;4.53;;
9942;SDS011;5010;45.080;7.634;2024-01-27T11:29:11;5.00;;;4.00;;
9942;SDS011;5010;45.080;7.634;2024-01-27T11:31:46;5.00;;;3.67;;
9942;SDS011;5010;45.080;7.634;2024-01-27T11:34:14;5.90;;;3.78;;
9942;SDS011;5010;45.080;7.634;2024-01-27T11:36:45;5.00;;;3.88;;
9942;SDS011;5010;45.080;7.634;2024-01-27T11:39:25;6.15;;;4.38;;
9942;SDS011;5010;45.080;7.634;2024-01-27T11:42:04;5.53;;;4.25;;
9942;SDS011;5010;45.080;7.634;2024-01-27T11:44:33;6.57;;;4.50;;
9942;SDS011;5010;45.080;7.634;2024-01-27T11:47:03;6.65;;;4.03;;
9942;SDS011;5010;45.080;7.634;2024-01-27T11:49:32;5.20;;;3.85;;
9942;SDS011;5010;45.080;7.634;2024-01-27T11:52:01;6.13;;;4.03;;
9942;SDS011;5010;45.080;7.634;2024-01-27T11:54:29;5.78;;;4.25;;
9942;SDS011;5010;45.080;7.634;2024-01-27T11:56:57;7.28;;;4.90;;
9942;SDS011;5010;45.080;7.634;2024-01-27T11:59:24;7.63;;;3.85;;
9942;SDS011;5010;45.080;7.634;2024-01-27T12:01:51;8.23;;;5.03;;
9942;SDS011;5010;45.080;7.634;2024-01-27T12:04:20;7.57;;;4.63;;
9942;SDS011;5010;45.080;7.634;2024-01-27T12:06:47;6.40;;;5.05;;
9942;SDS011;5010;45.080;7.634;2024-01-27T12:09:15;5.60;;;4.28;;
9942;SDS011;5010;45.080;7.634;2024-01-27T12:11:43;7.32;;;4.82;;
9942;SDS011;5010;45.080;7.634;2024-01-27T12:14:11;10.13;;;5.65;;
9942;SDS011;5010;45.080;7.634;2024-01-27T12:16:38;6.50;;;5.03;;
9942;SDS011;5010;45.080;7.634;2024-01-27T12:19:08;8.98;;;6.85;;
9942;SDS011;5010;45.080;7.634;2024-01-27T12:21:38;7.68;;;5.60;;
9942;SDS011;5010;45.080;7.634;2024-01-27T12:24:15;7.15;;;5.50;;
9942;SDS011;5010;45.080;7.634;2024-01-27T12:26:43;7.10;;;5.97;;
9942;SDS011;5010;45.080;7.634;2024-01-27T12:29:11;10.30;;;8.00;;
9942;SDS011;5010;45.080;7.634;2024-01-27T12:31:39;5.50;;;4.45;;
9942;SDS011;5010;45.080;7.634;2024-01-27T12:34:07;7.65;;;6.22;;
9942;SDS011;5010;45.080;7.634;2024-01-27T12:36:41;6.75;;;5.18;;
9942;SDS011;5010;45.080;7.634;2024-01-27T12:39:09;6.15;;;4.30;;
9942;SDS011;5010;45.080;7.634;2024-01-27T12:41:37;8.88;;;5.75;;
9942;SDS011;5010;45.080;7.634;2024-01-27T12:44:05;8.05;;;6.57;;
9942;SDS011;5010;45.080;7.634;2024-01-27T12:46:33;8.05;;;5.90;;
9942;SDS011;5010;45.080;7.634;2024-01-27T12:49:01;6.93;;;4.90;;
9942;SDS011;5010;45.080;7.634;2024-01-27T12:51:29;6.53;;;5.03;;
9942;SDS011;5010;45.080;7.634;2024-01-27T12:53:58;6.75;;;5.10;;
9942;SDS011;5010;45.080;7.634;2024-01-27T12:56:26;5.50;;;4.40;;
9942;SDS011;5010;45.080;7.634;2024-01-27T12:58:53;6.22;;;4.07;;
9942;SDS011;5010;45.080;7.634;2024-01-27T13:01:21;7.15;;;6.07;;
9942;SDS011;5010;45.080;7.634;2024-01-27T13:03:49;5.70;;;4.15;;
9942;SDS011;5010;45.080;7.634;2024-01-27T13:06:17;5.80;;;5.07;;
9942;SDS011;5010;45.080;7.634;2024-01-27T13:08:45;8.23;;;4.30;;
9942;SDS011;5010;45.080;7.634;2024-01-27T13:11:15;6.93;;;4.10;;
9942;SDS011;5010;45.080;7.634;2024-01-27T13:13:42;6.20;;;4.15;;
9942;SDS011;5010;45.080;7.634;2024-01-27T13:16:10;5.10;;;3.95;;
9942;SDS011;5010;45.080;7.634;2024-01-27T13:18:37;5.97;;;5.10;;
9942;SDS011;5010;45.080;7.634;2024-01-27T13:21:05;6.75;;;4.15;;
9942;SDS011;5010;45.080;7.634;2024-01-27T13:23:33;6.97;;;5.15;;
9942;SDS011;5010;45.080;7.634;2024-01-27T13:26:01;4.85;;;3.85;;
9942;SDS011;5010;45.080;7.634;2024-01-27T13:28:31;8.48;;;5.47;;
9942;SDS011;5010;45.080;7.634;2024-01-27T13:30:58;6.28;;;4.13;;
9942;SDS011;5010;45.080;7.634;2024-01-27T13:33:26;7.10;;;4.95;;
9942;SDS011;5010;45.080;7.634;2024-01-27T13:35:54;5.95;;;5.25;;
9942;SDS011;5010;45.080;7.634;2024-01-27T13:38:22;5.97;;;4.10;;
9942;SDS011;5010;45.080;7.634;2024-01-27T13:40:51;9.27;;;5.28;;
9942;SDS011;5010;45.080;7.634;2024-01-27T13:43:18;6.50;;;3.55;;
9942;SDS011;5010;45.080;7.634;2024-01-27T13:45:48;7.03;;;4.88;;
9942;SDS011;5010;45.080;7.634;2024-01-27T13:48:16;5.93;;;4.82;;
9942;SDS011;5010;45.080;7.634;2024-01-27T13:50:44;5.93;;;4.00;;
9942;SDS011;5010;45.080;7.634;2024-01-27T13:53:11;5.47;;;3.60;;
9942;SDS011;5010;45.080;7.634;2024-01-27T13:55:39;5.00;;;3.00;;
9942;SDS011;5010;45.080;7.634;2024-01-27T13:58:09;4.93;;;3.55;;
9942;SDS011;5010;45.080;7.634;2024-01-27T14:00:37;8.32;;;4.43;;
9942;SDS011;5010;45.080;7.634;2024-01-27T14:03:06;5.72;;;3.55;;
9942;SDS011;5010;45.080;7.634;2024-01-27T14:05:34;9.07;;;5.45;;
9942;SDS011;5010;45.080;7.634;2024-01-27T14:08:03;6.82;;;5.78;;
9942;SDS011;5010;45.080;7.634;2024-01-27T14:10:32;5.45;;;4.60;;
9942;SDS011;5010;45.080;7.634;2024-01-27T14:13:00;9.05;;;5.35;;
9942;SDS011;5010;45.080;7.634;2024-01-27T14:15:32;8.45;;;5.80;;
9942;SDS011;5010;45.080;7.634;2024-01-27T14:18:01;9.30;;;7.05;;
9942;SDS011;5010;45.080;7.634;2024-01-27T14:20:31;7.20;;;4.65;;
9942;SDS011;5010;45.080;7.634;2024-01-27T14:23:00;7.47;;;4.88;;
9942;SDS011;5010;45.080;7.634;2024-01-27T14:25:27;8.55;;;6.28;;
9942;SDS011;5010;45.080;7.634;2024-01-27T14:27:55;7.85;;;5.05;;
9942;SDS011;5010;45.080;7.634;2024-01-27T14:30:22;6.18;;;4.22;;
9942;SDS011;5010;45.080;7.634;2024-01-27T14:32:50;5.22;;;3.60;;
9942;SDS011;5010;45.080;7.634;2024-01-27T14:35:18;6.30;;;4.25;;
9942;SDS011;5010;45.080;7.634;2024-01-27T14:37:47;8.23;;;4.82;;
9942;SDS011;5010;45.080;7.634;2024-01-27T14:40:14;6.07;;;4.63;;
9942;SDS011;5010;45.080;7.634;2024-01-27T14:42:44;8.35;;;5.63;;
9942;SDS011;5010;45.080;7.634;2024-01-27T14:45:12;6.80;;;5.45;;
9942;SDS011;5010;45.080;7.634;2024-01-27T14:47:39;7.55;;;5.70;;
9942;SDS011;5010;45.080;7.634;2024-01-27T14:50:07;7.80;;;5.13;;
9942;SDS011;5010;45.080;7.634;2024-01-27T14:52:36;8.07;;;4.43;;
9942;SDS011;5010;45.080;7.634;2024-01-27T14:55:06;6.40;;;4.68;;
9942;SDS011;5010;45.080;7.634;2024-01-27T14:57:36;16.45;;;8.52;;
9942;SDS011;5010;45.080;7.634;2024-01-27T15:00:04;16.73;;;9.85;;
9942;SDS011;5010;45.080;7.634;2024-01-27T15:02:33;17.30;;;10.73;;
9942;SDS011;5010;45.080;7.634;2024-01-27T15:05:00;16.75;;;10.20;;
9942;SDS011;5010;45.080;7.634;2024-01-27T15:07:28;29.02;;;18.60;;
9942;SDS011;5010;45.080;7.634;2024-01-27T15:09:56;47.47;;;30.48;;
9942;SDS011;5010;45.080;7.634;2024-01-27T15:12:25;55.75;;;39.50;;
9942;SDS011;5010;45.080;7.634;2024-01-27T15:14:52;58.88;;;39.20;;
9942;SDS011;5010;45.080;7.634;2024-01-27T15:17:20;33.80;;;23.45;;
9942;SDS011;5010;45.080;7.634;2024-01-27T15:19:48;25.98;;;15.25;;
9942;SDS011;5010;45.080;7.634;2024-01-27T15:22:17;22.50;;;15.40;;